This is the latest recevied weather packets stored in our database for station/object KC4JES. If no packets are shown the sender has not sent any weather packets the latest 10 day(s).
| Time | Temp. | Humidity | Pressure | Rain* | Wind** | Luminosity | Snow |
|---|---|---|---|---|---|---|---|
| 1777987917 | 23.89° C | 62% | 1018 hPa | 0 mm | - | 54 W/m² | - |
| 1777987612 | 23.33° C | 66% | 1017.8 hPa | 0 mm | - | 52 W/m² | - |
| 1777987310 | 22.78° C | 68% | 1017.8 hPa | 0 mm | - | 49 W/m² | - |
| 1777987007 | 22.78° C | 66% | 1017.7 hPa | 0 mm | - | 34 W/m² | - |
| 1777986705 | 22.22° C | 70% | 1017.9 hPa | 0 mm | - | 50 W/m² | - |
| 1777986403 | 21.67° C | 72% | 1017.7 hPa | 0 mm | - | 49 W/m² | - |
| 1777986101 | 21.11° C | 76% | 1017.8 hPa | 0 mm | - | 44 W/m² | - |
| 1777985797 | 20.56° C | 81% | 1017.7 hPa | 0 mm | - | 38 W/m² | - |
| 1777985495 | 20° C | 83% | 1017.7 hPa | 0 mm | - | 42 W/m² | - |
| 1777985191 | 18.89° C | 93% | 1017.8 hPa | 0 mm | - | 41 W/m² | - |
| 1777984887 | 18.89° C | 96% | 1017.7 hPa | 0 mm | - | 39 W/m² | - |
| 1777984583 | 18.33° C | 96% | 1017.7 hPa | 0 mm | - | 36 W/m² | - |
| 1777984280 | 17.78° C | 97% | 1017.8 hPa | 0 mm | - | 36 W/m² | - |
| 1777983977 | 17.22° C | 97% | 1017.6 hPa | 0 mm | - | 34 W/m² | - |
| 1777983674 | 16.67° C | 97% | 1017.7 hPa | 0 mm | - | 33 W/m² | - |
| 1777983370 | 16.67° C | 97% | 1017.6 hPa | 0 mm | - | 31 W/m² | - |
| 1777983067 | 16.11° C | 97% | 1017.5 hPa | 0 mm | - | 30 W/m² | - |
| 1777982764 | 15.56° C | 97% | 1017.4 hPa | 0 mm | - | 28 W/m² | - |
| 1777982460 | 15.56° C | 97% | 1017.3 hPa | 0 mm | - | 25 W/m² | - |
| 1777982154 | 15° C | 97% | 1017.2 hPa | 0 mm | - | 24 W/m² | - |
| 1777981852 | 15° C | 97% | 1017.5 hPa | 0 mm | - | 22 W/m² | - |
| 1777981549 | 15° C | 97% | 1017.4 hPa | 0 mm | - | 21 W/m² | - |
| 1777981245 | 14.44° C | 97% | 1017.4 hPa | 0 mm | - | 20 W/m² | - |
| 1777980941 | 14.44° C | 97% | 1017.3 hPa | 0 mm | - | 19 W/m² | - |
| 1777980638 | 14.44° C | 97% | 1017.2 hPa | 0 mm | - | 17 W/m² | - |
* Rain latest hour (hover to see other rain measurements)
** Current wind speed in m/s (hover to see current wind gust speed)